Black Star — 9HA2911 — position and weather

sailwx.info

Track history (hours):
 
Tides and Currents Weather Stations Pressure Air Temp Water Temp Dewpoint Dewpoint Depression Visibility Wind Speed Wind Dir Waves Ship Positions

Black Star

Last reported at 2015-Apr-01 00:16 UTC. Time now 2015-Apr-02 07:47 UTC.
Position N 39°36' W 009°57'.

Length 128 m; draft 7.6 m.

Type: Ship (hazmat cat B). MMSI: 256714000.

Date/timePositionNaut miles runAvg speedWind from/ knotsBaromVisibWave heightAir tempDewpointWater temp
2015-Apr-01 00:16N 39°36' W 009°57'20 9.4
2015-Mar-31 22:08N 39°16' W 009°57'6 9.2
2015-Mar-31 21:28N 39°10' W 009°57'9 9.5
2015-Mar-31 20:32N 39°01' W 009°58'9 9.7
2015-Mar-31 19:34N 38°51' W 009°59'10 9.8
2015-Mar-31 18:34N 38°42' W 009°58'10 9.6
2015-Mar-31 17:34N 38°32' W 009°55'9 9.2
2015-Mar-31 16:34N 38°23' W 009°53'10 9.1
2015-Mar-31 15:28N 38°14' W 009°49'8 9.0
2015-Mar-31 14:33N 38°06' W 009°46'9 9.1
2015-Mar-31 13:34N 37°57' W 009°44'10 9.3
2015-Mar-31 12:32N 37°48' W 009°41'10 9.4
2015-Mar-31 11:30N 37°38' W 009°38'9 9.5
2015-Mar-31 10:31N 37°29' W 009°35'9 9.3
2015-Mar-31 09:32N 37°20' W 009°32'9 9.2
2015-Mar-31 08:32N 37°11' W 009°30'9 9.5
2015-Mar-31 07:33N 37°02' W 009°28'12 9.6
2015-Mar-31 06:16N 36°50' W 009°23'710.1
2015-Mar-31 05:33N 36°45' W 009°17'13 9.1
2015-Mar-31 04:05N 36°38' W 009°03'5 9.7
2015-Mar-31 03:32N 36°36' W 008°57'10 9.8
2015-Mar-31 02:33N 36°33' W 008°46'1110.7
2015-Mar-31 01:33N 36°29' W 008°33'1410.9
2015-Mar-31 00:16N 36°23' W 008°18'2211.1
2015-Mar-30 22:20N 36°16' W 007°52'11510.6
2015-Mar-30 11:31N 35°59' W 005°31'8 8.8
2015-Mar-30 10:33N 36°01' W 005°21'9 8.7
2015-Mar-30 09:31N 36°02' W 005°10'35511.8
2015-Mar-29 03:23N 37°08' E 002°04'  
2015-Mar-26 14:24N 36°41' E 013°34'1011.9
2015-Mar-26 13:32N 36°38' E 013°46'1111.6
2015-Mar-26 12:33N 36°34' E 013°59'1211.8
2015-Mar-26 11:33N 36°30' E 014°13'1611.9
2015-Mar-26 10:13N 36°27' E 014°32'  
Track history (hours):
 
Tides and Currents Weather Stations Pressure Air Temp Water Temp Dewpoint Dewpoint Depression Visibility Wind Speed Wind Dir Waves Ship Positions

Black Star

Last reported at 2015-Apr-01 00:16 UTC. Time now 2015-Apr-02 07:47 UTC.
Position N 39°36' W 009°57'.

Length 128 m; draft 7.6 m.

Type: Ship (hazmat cat B). MMSI: 256714000.

Date/timePositionNaut miles runAvg speedWind from/ knotsBaromVisibWave heightAir tempDewpointWater temp
2015-Apr-01 00:16N 39°36' W 009°57'20 9.4
2015-Mar-31 22:08N 39°16' W 009°57'6 9.2
2015-Mar-31 21:28N 39°10' W 009°57'9 9.5
2015-Mar-31 20:32N 39°01' W 009°58'9 9.7
2015-Mar-31 19:34N 38°51' W 009°59'10 9.8
2015-Mar-31 18:34N 38°42' W 009°58'10 9.6
2015-Mar-31 17:34N 38°32' W 009°55'9 9.2
2015-Mar-31 16:34N 38°23' W 009°53'10 9.1
2015-Mar-31 15:28N 38°14' W 009°49'8 9.0
2015-Mar-31 14:33N 38°06' W 009°46'9 9.1
2015-Mar-31 13:34N 37°57' W 009°44'10 9.3
2015-Mar-31 12:32N 37°48' W 009°41'10 9.4
2015-Mar-31 11:30N 37°38' W 009°38'9 9.5
2015-Mar-31 10:31N 37°29' W 009°35'9 9.3
2015-Mar-31 09:32N 37°20' W 009°32'9 9.2
2015-Mar-31 08:32N 37°11' W 009°30'9 9.5
2015-Mar-31 07:33N 37°02' W 009°28'12 9.6
2015-Mar-31 06:16N 36°50' W 009°23'710.1
2015-Mar-31 05:33N 36°45' W 009°17'13 9.1
2015-Mar-31 04:05N 36°38' W 009°03'5 9.7
2015-Mar-31 03:32N 36°36' W 008°57'10 9.8
2015-Mar-31 02:33N 36°33' W 008°46'1110.7
2015-Mar-31 01:33N 36°29' W 008°33'1410.9
2015-Mar-31 00:16N 36°23' W 008°18'2211.1
2015-Mar-30 22:20N 36°16' W 007°52'11510.6
2015-Mar-30 11:31N 35°59' W 005°31'8 8.8
2015-Mar-30 10:33N 36°01' W 005°21'9 8.7
2015-Mar-30 09:31N 36°02' W 005°10'35511.8
2015-Mar-29 03:23N 37°08' E 002°04'  
2015-Mar-26 14:24N 36°41' E 013°34'1011.9
2015-Mar-26 13:32N 36°38' E 013°46'1111.6
2015-Mar-26 12:33N 36°34' E 013°59'1211.8
2015-Mar-26 11:33N 36°30' E 014°13'1611.9
2015-Mar-26 10:13N 36°27' E 014°32'  

Dump ship's entire track history